Elbella — 9HA2358 — position and weather

sailwx.info

Track history (hours):
 
Tides and Currents Weather Stations Pressure Air Temp Water Temp Dewpoint Dewpoint Depression Visibility Wind Speed Wind Dir Waves Ship Positions

Elbella

Last reported at 2016-Aug-20 20:27 UTC. Time now 2016-Aug-29 21:38 UTC.
Position N 35°58' E 015°42'.
Warning: this ship's position is 9 days out of date.

Length 176 m; draft 7.6 m.

Type: Ship (hazmat cat A). MMSI: 248422000.

Date/timePositionNaut miles runAvg speedWind from/ knotsBaromVisibWave heightAir tempDewpointWater temp
2016-Aug-20 20:27N 35°58' E 015°42'1011.2
2016-Aug-20 19:33N 35°56' E 015°30'1611.2
2016-Aug-20 18:04N 35°53' E 015°10'611.4
2016-Aug-20 17:33N 35°52' E 015°02'1111.4
2016-Aug-20 16:33N 35°50' E 014°49'10 9.6
2016-Aug-20 15:28N 35°51' E 014°36'0 0.1
2016-Aug-20 14:33N 35°51' E 014°36'0 0.0
2016-Aug-20 13:33N 35°51' E 014°36'0 0.0
2016-Aug-20 12:33N 35°51' E 014°36'0 0.1
2016-Aug-20 11:33N 35°51' E 014°36'5 5.1
2016-Aug-20 10:33N 35°50' E 014°42'1412.9
2016-Aug-20 09:28N 36°01' E 014°53'0 0.1
2016-Aug-20 08:31N 36°01' E 014°53'0 0.0
2016-Aug-20 07:31N 36°01' E 014°53'0 0.0
2016-Aug-20 06:31N 36°01' E 014°53'0 0.0
2016-Aug-20 05:31N 36°01' E 014°53'0 0.0
2016-Aug-20 04:31N 36°01' E 014°53'0 0.0
2016-Aug-20 03:31N 36°01' E 014°53'0 0.0
2016-Aug-20 02:31N 36°01' E 014°53'0 0.0
2016-Aug-20 01:31N 36°01' E 014°53'0 0.0
2016-Aug-20 00:31N 36°01' E 014°53'0 0.0
2016-Aug-19 23:31N 36°01' E 014°53'0 0.0
2016-Aug-19 22:31N 36°01' E 014°53'0 0.0
2016-Aug-19 21:31N 36°01' E 014°53'0 0.0
2016-Aug-19 20:31N 36°01' E 014°53'0 0.0
2016-Aug-19 19:31N 36°01' E 014°53'0 0.0
2016-Aug-19 18:31N 36°01' E 014°53'0 0.1
2016-Aug-19 17:31N 36°01' E 014°53'0 0.0
2016-Aug-19 16:31N 36°01' E 014°53'0 0.1
2016-Aug-19 15:31N 36°01' E 014°53'0 0.0
2016-Aug-19 14:31N 36°01' E 014°53'0 0.0
2016-Aug-19 13:31N 36°01' E 014°53'0 0.0
2016-Aug-19 12:31N 36°01' E 014°53'0 0.1
2016-Aug-19 11:28N 36°01' E 014°53'0 0.0
2016-Aug-19 10:31N 36°01' E 014°53'0 0.0
2016-Aug-19 09:31N 36°01' E 014°53'0 0.0
2016-Aug-19 08:31N 36°01' E 014°53'0 0.0
2016-Aug-19 07:31N 36°01' E 014°53'0 0.0
2016-Aug-19 06:31N 36°01' E 014°53'0 0.0
2016-Aug-19 05:31N 36°01' E 014°53'0 0.0
2016-Aug-19 04:31N 36°01' E 014°53'0 0.0
2016-Aug-19 03:31N 36°01' E 014°53'0 0.0
2016-Aug-19 02:28N 36°01' E 014°53'0 0.0
2016-Aug-19 01:28N 36°01' E 014°53'0 0.0
2016-Aug-19 00:31N 36°01' E 014°53'0 0.0
2016-Aug-18 23:31N 36°01' E 014°53'0 0.0
2016-Aug-18 22:31N 36°01' E 014°53'0 0.0
2016-Aug-18 21:28N 36°01' E 014°53'1 1.0
2016-Aug-18 20:30N 36°01' E 014°52'1112.1
2016-Aug-18 19:34N 35°52' E 014°43'9 9.3
2016-Aug-18 18:33N 35°49' E 014°32'0 0.3
2016-Aug-18 17:24N 35°49' E 014°33'0 0.0
2016-Aug-18 16:24N 35°49' E 014°33'0 0.0
2016-Aug-18 15:33N 35°49' E 014°33'0 0.0
2016-Aug-18 14:33N 35°49' E 014°33'0 0.0
2016-Aug-18 13:27N 35°49' E 014°33'0 0.0
2016-Aug-18 12:18N 35°49' E 014°33'0 0.0
2016-Aug-18 10:33N 35°49' E 014°33'0 0.0
2016-Aug-18 06:15N 35°49' E 014°33'0 0.0
2016-Aug-18 05:30N 35°49' E 014°33'0 0.0
2016-Aug-18 04:33N 35°49' E 014°33'2 0.8
2016-Aug-18 02:33N 35°48' E 014°34'5 5.5
2016-Aug-18 01:33N 35°44' E 014°39'4 4.1
2016-Aug-18 00:33N 35°41' E 014°42'0 0.4
2016-Aug-17 23:33N 35°42' E 014°42'0 0.2
2016-Aug-17 22:32N 35°42' E 014°42'0 0.1
2016-Aug-17 21:33N 35°42' E 014°42'0 0.2
2016-Aug-17 20:33N 35°42' E 014°42'0 0.3
2016-Aug-17 19:33N 35°43' E 014°42'0 0.3
2016-Aug-17 18:33N 35°43' E 014°42'3 2.8
2016-Aug-17 17:33N 35°45' E 014°44'6 5.6
2016-Aug-17 16:33N 35°48' E 014°49'5 5.3
2016-Aug-17 15:32N 35°49' E 014°56'5 5.1
2016-Aug-17 14:33N 35°49' E 015°02'4 3.6
2016-Aug-17 13:33N 35°49' E 015°07'5 5.0
2016-Aug-17 12:33N 35°52' E 015°12'6 5.7
2016-Aug-17 11:33N 35°48' E 015°17'6 5.9
2016-Aug-17 10:33N 35°51' E 015°23'10 4.8
2016-Aug-17 08:33N 35°51' E 015°35'9 8.7
2016-Aug-17 07:32N 35°52' E 015°46'1312.9
2016-Aug-17 06:33N 35°53' E 016°01'2813.6
2016-Aug-17 04:30N 35°57' E 016°35'1313.0
2016-Aug-17 03:33N 35°59' E 016°50'1413.5
2016-Aug-17 02:32N 35°58' E 017°07'3414.3
2016-Aug-17 00:11N 35°59' E 017°49'1015.1
2016-Aug-16 23:33N 36°00' E 018°00'3415.2
2016-Aug-16 21:20N 36°03' E 018°42'  
2016-Aug-11 16:33N 34°54' E 035°50'62 3.4
2016-Aug-10 22:29N 33°55' E 035°32'0 0.0
2016-Aug-10 21:08N 33°55' E 035°32'  
Track history (hours):
 
Tides and Currents Weather Stations Pressure Air Temp Water Temp Dewpoint Dewpoint Depression Visibility Wind Speed Wind Dir Waves Ship Positions

Elbella

Last reported at 2016-Aug-20 20:27 UTC. Time now 2016-Aug-29 21:38 UTC.
Position N 35°58' E 015°42'.
Warning: this ship's position is 9 days out of date.

Length 176 m; draft 7.6 m.

Type: Ship (hazmat cat A). MMSI: 248422000.

Date/timePositionNaut miles runAvg speedWind from/ knotsBaromVisibWave heightAir tempDewpointWater temp
2016-Aug-20 20:27N 35°58' E 015°42'1011.2
2016-Aug-20 19:33N 35°56' E 015°30'1611.2
2016-Aug-20 18:04N 35°53' E 015°10'611.4
2016-Aug-20 17:33N 35°52' E 015°02'1111.4
2016-Aug-20 16:33N 35°50' E 014°49'10 9.6
2016-Aug-20 15:28N 35°51' E 014°36'0 0.1
2016-Aug-20 14:33N 35°51' E 014°36'0 0.0
2016-Aug-20 13:33N 35°51' E 014°36'0 0.0
2016-Aug-20 12:33N 35°51' E 014°36'0 0.1
2016-Aug-20 11:33N 35°51' E 014°36'5 5.1
2016-Aug-20 10:33N 35°50' E 014°42'1412.9
2016-Aug-20 09:28N 36°01' E 014°53'0 0.1
2016-Aug-20 08:31N 36°01' E 014°53'0 0.0
2016-Aug-20 07:31N 36°01' E 014°53'0 0.0
2016-Aug-20 06:31N 36°01' E 014°53'0 0.0
2016-Aug-20 05:31N 36°01' E 014°53'0 0.0
2016-Aug-20 04:31N 36°01' E 014°53'0 0.0
2016-Aug-20 03:31N 36°01' E 014°53'0 0.0
2016-Aug-20 02:31N 36°01' E 014°53'0 0.0
2016-Aug-20 01:31N 36°01' E 014°53'0 0.0
2016-Aug-20 00:31N 36°01' E 014°53'0 0.0
2016-Aug-19 23:31N 36°01' E 014°53'0 0.0
2016-Aug-19 22:31N 36°01' E 014°53'0 0.0
2016-Aug-19 21:31N 36°01' E 014°53'0 0.0
2016-Aug-19 20:31N 36°01' E 014°53'0 0.0
2016-Aug-19 19:31N 36°01' E 014°53'0 0.0
2016-Aug-19 18:31N 36°01' E 014°53'0 0.1
2016-Aug-19 17:31N 36°01' E 014°53'0 0.0
2016-Aug-19 16:31N 36°01' E 014°53'0 0.1
2016-Aug-19 15:31N 36°01' E 014°53'0 0.0
2016-Aug-19 14:31N 36°01' E 014°53'0 0.0
2016-Aug-19 13:31N 36°01' E 014°53'0 0.0
2016-Aug-19 12:31N 36°01' E 014°53'0 0.1
2016-Aug-19 11:28N 36°01' E 014°53'0 0.0
2016-Aug-19 10:31N 36°01' E 014°53'0 0.0
2016-Aug-19 09:31N 36°01' E 014°53'0 0.0
2016-Aug-19 08:31N 36°01' E 014°53'0 0.0
2016-Aug-19 07:31N 36°01' E 014°53'0 0.0
2016-Aug-19 06:31N 36°01' E 014°53'0 0.0
2016-Aug-19 05:31N 36°01' E 014°53'0 0.0
2016-Aug-19 04:31N 36°01' E 014°53'0 0.0
2016-Aug-19 03:31N 36°01' E 014°53'0 0.0
2016-Aug-19 02:28N 36°01' E 014°53'0 0.0
2016-Aug-19 01:28N 36°01' E 014°53'0 0.0
2016-Aug-19 00:31N 36°01' E 014°53'0 0.0
2016-Aug-18 23:31N 36°01' E 014°53'0 0.0
2016-Aug-18 22:31N 36°01' E 014°53'0 0.0
2016-Aug-18 21:28N 36°01' E 014°53'1 1.0
2016-Aug-18 20:30N 36°01' E 014°52'1112.1
2016-Aug-18 19:34N 35°52' E 014°43'9 9.3
2016-Aug-18 18:33N 35°49' E 014°32'0 0.3
2016-Aug-18 17:24N 35°49' E 014°33'0 0.0
2016-Aug-18 16:24N 35°49' E 014°33'0 0.0
2016-Aug-18 15:33N 35°49' E 014°33'0 0.0
2016-Aug-18 14:33N 35°49' E 014°33'0 0.0
2016-Aug-18 13:27N 35°49' E 014°33'0 0.0
2016-Aug-18 12:18N 35°49' E 014°33'0 0.0
2016-Aug-18 10:33N 35°49' E 014°33'0 0.0
2016-Aug-18 06:15N 35°49' E 014°33'0 0.0
2016-Aug-18 05:30N 35°49' E 014°33'0 0.0
2016-Aug-18 04:33N 35°49' E 014°33'2 0.8
2016-Aug-18 02:33N 35°48' E 014°34'5 5.5
2016-Aug-18 01:33N 35°44' E 014°39'4 4.1
2016-Aug-18 00:33N 35°41' E 014°42'0 0.4
2016-Aug-17 23:33N 35°42' E 014°42'0 0.2
2016-Aug-17 22:32N 35°42' E 014°42'0 0.1
2016-Aug-17 21:33N 35°42' E 014°42'0 0.2
2016-Aug-17 20:33N 35°42' E 014°42'0 0.3
2016-Aug-17 19:33N 35°43' E 014°42'0 0.3
2016-Aug-17 18:33N 35°43' E 014°42'3 2.8
2016-Aug-17 17:33N 35°45' E 014°44'6 5.6
2016-Aug-17 16:33N 35°48' E 014°49'5 5.3
2016-Aug-17 15:32N 35°49' E 014°56'5 5.1
2016-Aug-17 14:33N 35°49' E 015°02'4 3.6
2016-Aug-17 13:33N 35°49' E 015°07'5 5.0
2016-Aug-17 12:33N 35°52' E 015°12'6 5.7
2016-Aug-17 11:33N 35°48' E 015°17'6 5.9
2016-Aug-17 10:33N 35°51' E 015°23'10 4.8
2016-Aug-17 08:33N 35°51' E 015°35'9 8.7
2016-Aug-17 07:32N 35°52' E 015°46'1312.9
2016-Aug-17 06:33N 35°53' E 016°01'2813.6
2016-Aug-17 04:30N 35°57' E 016°35'1313.0
2016-Aug-17 03:33N 35°59' E 016°50'1413.5
2016-Aug-17 02:32N 35°58' E 017°07'3414.3
2016-Aug-17 00:11N 35°59' E 017°49'1015.1
2016-Aug-16 23:33N 36°00' E 018°00'3415.2
2016-Aug-16 21:20N 36°03' E 018°42'  
2016-Aug-11 16:33N 34°54' E 035°50'62 3.4
2016-Aug-10 22:29N 33°55' E 035°32'0 0.0
2016-Aug-10 21:08N 33°55' E 035°32'  

Dump ship's entire track history